createdAt,value
2018-07-19T00:01:37.121Z,3.00
2018-07-19T00:04:05.618Z,3.03
2018-07-19T00:06:34.101Z,3.10
2018-07-19T00:09:02.498Z,3.22
2018-07-19T00:11:31.184Z,3.13
2018-07-19T00:13:59.822Z,3.10
2018-07-19T00:16:28.340Z,3.10
2018-07-19T00:18:56.987Z,3.00
2018-07-19T00:21:25.527Z,3.10
2018-07-19T00:23:54.414Z,3.53
2018-07-19T00:26:23.105Z,3.03
2018-07-19T00:28:52.040Z,3.10
2018-07-19T00:31:20.831Z,3.20
2018-07-19T00:33:49.519Z,2.97
2018-07-19T00:36:18.248Z,2.90
2018-07-19T00:38:46.825Z,3.23
2018-07-19T00:41:15.134Z,3.03
2018-07-19T00:43:43.447Z,3.23
2018-07-19T00:46:11.775Z,3.10
2018-07-19T00:48:40.107Z,3.63
2018-07-19T00:51:08.488Z,3.10
2018-07-19T00:53:36.799Z,3.70
2018-07-19T00:56:05.285Z,3.00
2018-07-19T00:58:33.621Z,3.20
2018-07-19T01:01:02.074Z,2.93
2018-07-19T01:03:30.402Z,3.73
2018-07-19T01:05:58.851Z,3.10
2018-07-19T01:08:27.283Z,3.27
2018-07-19T01:10:55.684Z,3.37
2018-07-19T01:13:24.033Z,3.33
2018-07-19T01:15:52.430Z,3.67
2018-07-19T01:18:20.752Z,3.50
2018-07-19T01:20:49.139Z,3.03
2018-07-19T01:23:17.467Z,3.50
2018-07-19T01:25:45.814Z,3.37
2018-07-19T01:28:14.199Z,3.17
2018-07-19T01:30:42.756Z,3.30
2018-07-19T01:33:11.103Z,3.00
2018-07-19T01:35:39.443Z,3.23
2018-07-19T01:38:07.729Z,3.77
2018-07-19T01:40:36.083Z,3.57
2018-07-19T01:43:04.387Z,3.53
2018-07-19T01:45:32.761Z,3.30
2018-07-19T01:48:01.284Z,3.20
2018-07-19T01:50:29.618Z,3.40
2018-07-19T01:52:57.936Z,3.30
2018-07-19T01:55:26.289Z,3.30
2018-07-19T01:57:54.627Z,3.60
2018-07-19T02:00:22.925Z,3.40
2018-07-19T02:02:51.334Z,3.90
2018-07-19T02:05:19.677Z,3.47
2018-07-19T02:07:47.978Z,3.77
2018-07-19T02:10:16.301Z,3.67
2018-07-19T02:12:44.614Z,3.20
2018-07-19T02:15:13.063Z,3.93
2018-07-19T02:17:41.367Z,3.57
2018-07-19T02:20:09.717Z,3.60
2018-07-19T02:22:38.106Z,3.50
2018-07-19T02:25:06.558Z,3.60
2018-07-19T02:27:34.882Z,3.70
2018-07-19T02:30:03.271Z,4.00
2018-07-19T02:32:31.596Z,4.10
2018-07-19T02:34:59.918Z,3.60
2018-07-19T02:37:28.239Z,3.73
2018-07-19T02:39:56.538Z,3.80
2018-07-19T02:42:24.875Z,4.50
2018-07-19T02:44:53.216Z,3.97
2018-07-19T02:47:21.585Z,3.90
2018-07-19T02:49:49.957Z,4.00
2018-07-19T02:52:18.294Z,3.97
2018-07-19T02:54:46.639Z,4.23
2018-07-19T02:57:14.985Z,3.67
2018-07-19T02:59:43.328Z,3.73
2018-07-19T03:02:11.990Z,3.97
2018-07-19T03:04:40.320Z,4.37
2018-07-19T03:07:08.666Z,3.83
2018-07-19T03:09:37.025Z,3.60
2018-07-19T03:12:05.408Z,4.10
2018-07-19T03:14:33.711Z,4.20
2018-07-19T03:17:02.153Z,4.30
2018-07-19T03:19:30.720Z,4.30
2018-07-19T03:21:59.481Z,4.37
2018-07-19T03:24:27.894Z,4.10
2018-07-19T03:26:56.262Z,4.07
2018-07-19T03:29:24.659Z,4.40
2018-07-19T03:31:53.170Z,3.90
2018-07-19T03:34:21.483Z,3.93
2018-07-19T03:36:49.816Z,3.90
2018-07-19T03:39:18.150Z,4.10
2018-07-19T03:41:46.510Z,3.70
2018-07-19T03:44:14.802Z,4.10
2018-07-19T03:46:43.184Z,3.60
2018-07-19T03:49:11.471Z,3.97
2018-07-19T03:51:39.893Z,4.33
2018-07-19T03:54:08.323Z,4.97
2018-07-19T03:56:36.741Z,3.97
2018-07-19T03:59:05.177Z,3.50
2018-07-19T04:01:33.550Z,4.00
2018-07-19T04:04:01.899Z,3.50
2018-07-19T04:06:30.231Z,3.77
2018-07-19T04:08:58.603Z,3.67
2018-07-19T04:11:26.978Z,4.20
2018-07-19T04:13:55.338Z,3.50
2018-07-19T04:16:23.752Z,3.73
2018-07-19T04:18:52.329Z,3.37
2018-07-19T04:21:20.689Z,3.83
2018-07-19T04:23:49.003Z,3.33
2018-07-19T04:26:17.435Z,3.20
2018-07-19T04:28:45.839Z,3.63
2018-07-19T04:31:14.158Z,3.43
2018-07-19T04:33:42.461Z,3.60
2018-07-19T04:36:10.814Z,3.23
2018-07-19T04:38:39.285Z,3.87
2018-07-19T04:41:07.588Z,3.40
2018-07-19T04:43:35.990Z,3.80
2018-07-19T04:46:04.296Z,3.80
2018-07-19T04:48:32.722Z,3.50
2018-07-19T04:51:01.308Z,3.70
2018-07-19T04:53:29.641Z,3.37
2018-07-19T04:55:57.953Z,3.30
2018-07-19T04:58:26.276Z,3.53
2018-07-19T05:00:54.591Z,3.60
2018-07-19T05:03:23.899Z,3.40
2018-07-19T05:05:52.211Z,3.27
2018-07-19T05:08:20.708Z,3.30
2018-07-19T05:10:49.198Z,3.20
2018-07-19T05:13:17.711Z,3.30
2018-07-19T05:15:46.117Z,3.40
2018-07-19T05:18:14.475Z,3.40
2018-07-19T05:20:42.927Z,3.40
2018-07-19T05:23:11.327Z,3.37
2018-07-19T05:25:39.658Z,3.10
2018-07-19T05:28:08.552Z,3.20
2018-07-19T05:30:37.259Z,3.40
2018-07-19T05:33:05.922Z,2.87
2018-07-19T05:35:34.536Z,3.20
2018-07-19T05:38:03.239Z,3.17
2018-07-19T05:40:31.953Z,3.30
2018-07-19T05:43:00.691Z,3.00
2018-07-19T05:45:29.274Z,2.90
2018-07-19T05:47:58.051Z,2.97
2018-07-19T05:50:26.749Z,2.80
2018-07-19T05:52:55.343Z,3.00
2018-07-19T05:55:23.953Z,2.63
2018-07-19T05:57:53.342Z,2.80
2018-07-19T06:00:22.009Z,2.83
2018-07-19T06:02:50.804Z,3.10
2018-07-19T06:05:19.250Z,3.10
2018-07-19T06:07:48.070Z,3.00
2018-07-19T06:10:17.447Z,3.02
2018-07-19T06:12:45.959Z,2.60
2018-07-19T06:15:14.337Z,2.62
2018-07-19T06:17:42.746Z,2.62
2018-07-19T06:20:11.069Z,2.50
2018-07-19T06:22:39.409Z,2.63
2018-07-19T06:25:08.667Z,2.65
2018-07-19T06:27:37.012Z,2.90
2018-07-19T06:30:06.573Z,2.80
2018-07-19T06:32:34.864Z,2.75
2018-07-19T06:35:03.313Z,2.80
2018-07-19T06:37:33.667Z,2.90
2018-07-19T06:40:02.027Z,2.58
2018-07-19T06:42:30.319Z,2.58
2018-07-19T06:44:58.667Z,2.83
2018-07-19T06:47:27.041Z,2.80
2018-07-19T06:49:55.493Z,2.30
2018-07-19T06:52:29.461Z,2.60
2018-07-19T06:54:58.551Z,2.80
2018-07-19T06:57:27.693Z,2.58
2018-07-19T06:59:56.606Z,2.47
2018-07-19T07:02:25.014Z,2.67
2018-07-19T07:04:57.489Z,2.45
2018-07-19T07:07:26.836Z,2.52
2018-07-19T07:09:57.756Z,3.33
2018-07-19T07:12:26.051Z,2.27
2018-07-19T07:14:54.680Z,2.90
2018-07-19T07:17:23.038Z,2.47
2018-07-19T07:19:52.487Z,2.50
2018-07-19T07:22:20.756Z,1.90
2018-07-19T07:24:49.069Z,2.50
2018-07-19T07:27:17.384Z,2.42
2018-07-19T07:29:45.815Z,2.25
2018-07-19T07:32:14.194Z,2.05
2018-07-19T07:34:42.638Z,2.30
2018-07-19T07:37:11.012Z,2.40
2018-07-19T07:39:39.539Z,2.27
2018-07-19T07:42:07.930Z,2.67
2018-07-19T07:44:36.354Z,2.90
2018-07-19T07:47:04.648Z,2.87
2018-07-19T07:49:33.006Z,2.35
2018-07-19T07:52:01.339Z,2.75
2018-07-19T07:54:29.680Z,2.60
2018-07-19T07:56:57.999Z,2.50
2018-07-19T07:59:27.099Z,3.08
2018-07-19T08:01:55.479Z,2.45
2018-07-19T08:04:23.889Z,2.90
2018-07-19T08:06:54.122Z,2.80
2018-07-19T08:09:22.580Z,3.00
2018-07-19T08:11:50.906Z,2.90
2018-07-19T08:14:19.287Z,2.70
2018-07-19T08:16:47.771Z,2.70
2018-07-19T08:19:16.178Z,2.60
2018-07-19T08:21:44.537Z,2.80
2018-07-19T08:24:12.987Z,2.47
2018-07-19T08:26:41.655Z,2.50
2018-07-19T08:29:10.082Z,2.42
2018-07-19T08:31:38.315Z,2.35
2018-07-19T08:34:07.046Z,2.58
2018-07-19T08:36:41.730Z,2.87
2018-07-19T08:39:13.804Z,2.58
2018-07-19T08:44:21.339Z,2.50
2018-07-19T08:46:49.671Z,2.60
2018-07-19T08:49:18.006Z,2.90
2018-07-19T08:51:46.408Z,2.90
2018-07-19T08:54:14.742Z,2.80
2018-07-19T08:56:43.100Z,2.75
2018-07-19T08:59:11.454Z,2.62
2018-07-19T09:01:40.149Z,2.98
2018-07-19T09:04:08.439Z,2.67
2018-07-19T09:06:36.779Z,2.67
2018-07-19T09:09:07.666Z,3.30
2018-07-19T09:11:36.050Z,2.90
2018-07-19T09:14:04.736Z,2.80
2018-07-19T09:16:33.407Z,2.83
2018-07-19T09:19:02.072Z,2.70
2018-07-19T09:21:30.513Z,2.60
2018-07-19T09:23:58.850Z,2.72
2018-07-19T09:26:27.254Z,3.10
2018-07-19T09:28:55.699Z,3.00
2018-07-19T09:31:24.914Z,3.02
2018-07-19T09:33:53.307Z,2.75
2018-07-19T09:36:21.842Z,2.90
2018-07-19T09:38:50.340Z,2.85
2018-07-19T09:41:18.910Z,2.85
2018-07-19T09:43:47.298Z,3.00
2018-07-19T09:46:15.783Z,3.00
2018-07-19T09:48:44.206Z,2.75
2018-07-19T09:51:12.586Z,3.10
2018-07-19T09:53:41.067Z,2.90
2018-07-19T09:56:09.383Z,2.58
2018-07-19T09:58:37.751Z,3.20
2018-07-19T10:01:11.424Z,3.65
2018-07-19T10:03:39.768Z,3.45
2018-07-19T10:06:08.129Z,3.35
2018-07-19T10:08:36.421Z,3.72
2018-07-19T10:11:04.946Z,3.17
2018-07-19T10:13:33.319Z,3.40
2018-07-19T10:16:01.812Z,3.33
2018-07-19T10:18:30.407Z,3.47
2018-07-19T10:20:59.013Z,3.20
2018-07-19T10:23:27.474Z,3.33
2018-07-19T10:25:56.268Z,3.17
2018-07-19T10:28:24.827Z,2.90
2018-07-19T10:30:53.174Z,3.25
2018-07-19T10:33:21.503Z,3.20
2018-07-19T10:35:49.841Z,3.47
2018-07-19T10:38:18.282Z,3.12
2018-07-19T10:40:46.644Z,3.22
2018-07-19T10:43:14.992Z,3.00
2018-07-19T10:45:43.347Z,3.50
2018-07-19T10:48:11.663Z,3.00
2018-07-19T10:50:39.977Z,3.05
2018-07-19T10:53:09.331Z,3.40
2018-07-19T10:55:37.655Z,3.25
2018-07-19T10:58:05.971Z,3.02
2018-07-19T11:00:34.309Z,3.47
2018-07-19T11:03:02.609Z,3.42
2018-07-19T11:05:30.960Z,3.45
2018-07-19T11:07:59.234Z,3.17
2018-07-19T11:10:27.540Z,3.50
2018-07-19T11:12:55.957Z,3.10
2018-07-19T11:15:24.323Z,3.00
2018-07-19T11:17:52.728Z,3.08
2018-07-19T11:20:21.043Z,2.90
2018-07-19T11:22:49.381Z,3.10
2018-07-19T11:25:17.739Z,3.25
2018-07-19T11:27:46.079Z,3.33
2018-07-19T11:30:14.451Z,3.20
2018-07-19T11:32:43.824Z,3.17
2018-07-19T11:35:12.168Z,3.30
2018-07-19T11:37:40.507Z,3.27
2018-07-19T11:40:08.950Z,3.33
2018-07-19T11:42:37.287Z,3.27
2018-07-19T11:45:06.198Z,3.12
2018-07-19T11:47:34.616Z,3.50
2018-07-19T11:50:02.953Z,3.25
2018-07-19T11:52:31.339Z,3.10
2018-07-19T11:54:59.778Z,3.70
2018-07-19T11:57:28.236Z,3.77
2018-07-19T11:59:56.754Z,3.70
2018-07-19T12:02:25.168Z,3.50
2018-07-19T12:04:53.427Z,3.22
2018-07-19T12:07:21.776Z,3.58
2018-07-19T12:09:50.045Z,3.60
2018-07-19T12:12:18.447Z,3.30
2018-07-19T12:14:46.776Z,3.47
2018-07-19T12:17:15.261Z,3.60
2018-07-19T12:19:43.538Z,3.22
2018-07-19T12:22:11.871Z,3.45
2018-07-19T12:24:40.238Z,3.33
2018-07-19T12:27:08.532Z,3.33
2018-07-19T12:29:36.992Z,3.22
2018-07-19T12:32:05.375Z,3.37
2018-07-19T12:34:33.813Z,3.40
2018-07-19T12:37:02.107Z,3.20
2018-07-19T12:39:30.517Z,3.40
2018-07-19T12:41:59.090Z,3.52
2018-07-19T12:44:27.503Z,3.47
2018-07-19T12:46:55.824Z,3.42
2018-07-19T12:49:24.252Z,3.40
2018-07-19T12:51:52.633Z,3.17
2018-07-19T12:54:21.072Z,3.55
2018-07-19T12:56:49.507Z,3.02
2018-07-19T12:59:17.949Z,3.33
2018-07-19T13:01:46.340Z,3.60
2018-07-19T13:04:14.686Z,3.27
2018-07-19T13:06:43.111Z,3.40
2018-07-19T13:09:11.455Z,3.47
2018-07-19T13:11:39.858Z,3.30
2018-07-19T13:14:08.211Z,3.60
2018-07-19T13:16:36.522Z,3.67
2018-07-19T13:19:04.908Z,3.75
2018-07-19T13:21:33.170Z,3.47
2018-07-19T13:24:02.419Z,3.77
2018-07-19T13:26:31.251Z,3.98
2018-07-19T13:28:59.749Z,3.35
2018-07-19T13:31:28.034Z,3.10
2018-07-19T13:33:56.477Z,3.75
2018-07-19T13:36:24.809Z,3.50
2018-07-19T13:38:53.289Z,3.52
2018-07-19T13:41:21.996Z,3.10
2018-07-19T13:43:50.401Z,3.27
2018-07-19T13:46:18.847Z,3.47
2018-07-19T13:48:47.212Z,3.58
2018-07-19T13:51:15.601Z,3.45
2018-07-19T13:54:16.116Z,3.52
2018-07-19T13:57:00.439Z,3.35
2018-07-19T13:59:28.742Z,3.30
2018-07-19T14:01:58.272Z,3.77
2018-07-19T14:04:26.763Z,3.37
2018-07-19T14:06:55.342Z,3.33
2018-07-19T14:09:23.766Z,3.17
2018-07-19T14:11:52.124Z,3.47
2018-07-19T14:14:20.486Z,3.33
2018-07-19T14:16:48.897Z,3.10
2018-07-19T14:19:17.343Z,3.67
2018-07-19T14:21:45.699Z,4.00
2018-07-19T14:24:14.126Z,3.60
2018-07-19T14:26:42.508Z,3.70
2018-07-19T14:29:10.877Z,3.72
2018-07-19T14:31:39.190Z,3.40
2018-07-19T14:34:07.518Z,3.92
2018-07-19T14:36:35.835Z,3.70
2018-07-19T14:39:06.638Z,3.20
2018-07-19T14:41:34.956Z,3.62
2018-07-19T14:44:03.391Z,3.52
2018-07-19T14:46:32.139Z,3.42
2018-07-19T14:49:00.483Z,4.20
2018-07-19T14:51:29.228Z,3.25
2018-07-19T14:53:57.756Z,3.40
2018-07-19T14:56:26.039Z,3.30
2018-07-19T14:58:54.709Z,3.92
2018-07-19T15:01:23.545Z,4.00
2018-07-19T15:03:52.305Z,3.62
2018-07-19T15:06:21.200Z,3.90
2018-07-19T15:08:49.618Z,3.80
2018-07-19T15:11:19.441Z,3.27
2018-07-19T15:13:48.067Z,3.80
2018-07-19T15:16:17.061Z,3.72
2018-07-19T15:18:45.474Z,3.60
2018-07-19T15:21:13.843Z,3.25
2018-07-19T15:23:42.450Z,3.37
2018-07-19T15:26:10.925Z,3.95
2018-07-19T15:28:39.263Z,3.45
2018-07-19T15:31:07.627Z,3.45
2018-07-19T15:33:36.007Z,4.03
2018-07-19T15:36:04.427Z,3.75
2018-07-19T15:38:32.839Z,3.65
2018-07-19T15:41:01.524Z,3.70
2018-07-19T15:43:29.864Z,3.75
2018-07-19T15:45:58.263Z,3.83
2018-07-19T15:48:26.530Z,3.65
2018-07-19T15:50:54.875Z,3.40
2018-07-19T15:53:23.221Z,3.95
2018-07-19T15:55:51.591Z,4.72
2018-07-19T15:58:19.986Z,3.85
2018-07-19T16:00:48.441Z,4.90
2018-07-19T16:03:16.876Z,9.05
2018-07-19T16:05:45.246Z,5.17
2018-07-19T16:08:13.517Z,3.65
2018-07-19T16:10:41.835Z,4.10
2018-07-19T16:13:10.279Z,3.67
2018-07-19T16:15:38.642Z,4.00
2018-07-19T16:18:07.529Z,4.20
2018-07-19T16:20:36.360Z,5.30
2018-07-19T16:23:06.270Z,5.15
2018-07-19T16:25:34.930Z,4.20
2018-07-19T16:28:03.621Z,4.00
2018-07-19T16:30:33.469Z,5.35
2018-07-19T16:33:02.140Z,3.22
2018-07-19T16:35:30.873Z,3.87
2018-07-19T16:37:59.685Z,3.70
2018-07-19T16:40:28.095Z,3.72
2018-07-19T16:42:58.010Z,3.90
2018-07-19T16:45:26.817Z,3.87
2018-07-19T16:47:55.626Z,4.22
2018-07-19T16:50:24.570Z,3.80
2018-07-19T16:52:53.187Z,3.70
2018-07-19T16:55:21.902Z,3.70
2018-07-19T16:57:50.467Z,4.20
2018-07-19T17:00:19.447Z,3.95
2018-07-19T17:02:48.113Z,3.70
2018-07-19T17:05:16.591Z,3.83
2018-07-19T17:07:44.900Z,3.55
2018-07-19T17:10:13.237Z,3.52
2018-07-19T17:12:41.775Z,3.62
2018-07-19T17:15:10.124Z,3.60
2018-07-19T17:17:38.445Z,3.80
2018-07-19T17:20:06.936Z,4.00
2018-07-19T17:22:35.487Z,3.92
2018-07-19T17:25:03.839Z,4.35
2018-07-19T17:27:32.353Z,4.10
2018-07-19T17:30:00.854Z,4.95
2018-07-19T17:32:29.239Z,4.78
2018-07-19T17:34:57.859Z,3.67
2018-07-19T17:37:26.176Z,3.85
2018-07-19T17:39:54.979Z,4.40
2018-07-19T17:42:23.549Z,3.98
2018-07-19T17:44:52.481Z,3.60
2018-07-19T17:47:20.840Z,5.30
2018-07-19T17:49:49.145Z,5.15
2018-07-19T17:52:17.494Z,4.20
2018-07-19T17:54:46.582Z,3.90
2018-07-19T17:57:15.023Z,4.35
2018-07-19T17:59:43.518Z,3.62
2018-07-19T18:02:12.246Z,3.60
2018-07-19T18:04:40.685Z,3.65
2018-07-19T18:07:09.274Z,3.58
2018-07-19T18:09:37.691Z,4.10
2018-07-19T18:12:06.209Z,3.60
2018-07-19T18:14:34.886Z,3.80
2018-07-19T18:17:03.296Z,3.70
2018-07-19T18:19:31.794Z,4.03
2018-07-19T18:22:00.185Z,3.87
2018-07-19T18:24:28.515Z,3.77
2018-07-19T18:26:57.000Z,3.62
2018-07-19T18:29:25.506Z,4.10
2018-07-19T18:31:54.888Z,3.95
2018-07-19T18:34:23.172Z,4.05
2018-07-19T18:36:51.539Z,4.08
2018-07-19T18:39:19.982Z,4.28
2018-07-19T18:41:48.427Z,6.53
2018-07-19T18:44:16.744Z,5.97
2018-07-19T18:46:45.103Z,6.70
2018-07-19T18:49:13.562Z,7.40
2018-07-19T18:51:42.021Z,9.65
2018-07-19T18:54:11.943Z,6.92
2018-07-19T18:56:41.144Z,5.40
2018-07-19T18:59:10.023Z,4.72
2018-07-19T19:01:38.416Z,4.67
2018-07-19T19:04:06.725Z,4.35
2018-07-19T19:06:36.216Z,4.20
2018-07-19T19:09:07.162Z,4.40
2018-07-19T19:11:36.026Z,4.17
2018-07-19T19:14:04.570Z,4.62
2018-07-19T19:16:32.891Z,4.33
2018-07-19T19:19:01.620Z,4.00
2018-07-19T19:21:30.021Z,4.58
2018-07-19T19:23:58.419Z,4.50
2018-07-19T19:26:27.205Z,4.30
2018-07-19T19:29:11.488Z,4.10
2018-07-19T19:31:47.818Z,4.75
2018-07-19T19:34:16.391Z,5.17
2018-07-19T19:36:47.405Z,4.55
2018-07-19T19:39:16.010Z,4.33
2018-07-19T19:41:44.531Z,4.20
2018-07-19T19:44:13.480Z,4.40
2018-07-19T19:46:42.337Z,4.50
2018-07-19T19:49:11.095Z,4.70
2018-07-19T19:51:39.656Z,4.35
2018-07-19T19:54:08.528Z,4.70
2018-07-19T19:56:37.438Z,5.42
2018-07-19T19:59:06.326Z,4.80
2018-07-19T20:01:35.851Z,4.30
2018-07-19T20:04:04.401Z,4.37
2018-07-19T20:06:32.942Z,5.00
2018-07-19T20:09:01.527Z,4.53
2018-07-19T20:11:30.036Z,4.90
2018-07-19T20:13:59.656Z,4.67
2018-07-19T20:16:28.024Z,4.87
2018-07-19T20:18:56.519Z,4.80
2018-07-19T20:21:25.187Z,4.42
2018-07-19T20:23:53.741Z,4.67
2018-07-19T20:26:22.222Z,4.47
2018-07-19T20:28:50.594Z,4.83
2018-07-19T20:31:18.899Z,4.53
2018-07-19T20:33:47.225Z,4.80
2018-07-19T20:36:15.576Z,5.67
2018-07-19T20:38:43.914Z,5.00
2018-07-19T20:41:12.255Z,5.15
2018-07-19T20:43:40.680Z,5.22
2018-07-19T20:46:09.142Z,4.80
2018-07-19T20:48:37.509Z,4.45
2018-07-19T20:51:06.031Z,4.70
2018-07-19T20:53:34.412Z,5.15
2018-07-19T20:56:02.722Z,4.90
2018-07-19T20:58:31.191Z,5.58
2018-07-19T21:00:59.492Z,5.47
2018-07-19T21:03:27.835Z,4.97
2018-07-19T21:05:56.139Z,4.75
2018-07-19T21:08:24.533Z,4.90
2018-07-19T21:10:52.826Z,4.80
2018-07-19T21:13:21.184Z,5.30
2018-07-19T21:15:49.459Z,5.37
2018-07-19T21:18:18.096Z,5.00
2018-07-19T21:20:46.411Z,4.90
2018-07-19T21:23:14.723Z,5.10
2018-07-19T21:25:43.171Z,4.90
2018-07-19T21:28:11.474Z,4.75
2018-07-19T21:30:39.816Z,5.00
2018-07-19T21:33:08.194Z,5.03
2018-07-19T21:35:36.516Z,5.00
2018-07-19T21:38:04.845Z,5.17
2018-07-19T21:40:33.146Z,5.37
2018-07-19T21:43:01.468Z,4.72
2018-07-19T21:45:29.765Z,5.28
2018-07-19T21:47:58.160Z,5.12
2018-07-19T21:50:27.190Z,5.05
2018-07-19T21:52:55.506Z,5.17
2018-07-19T21:55:23.818Z,5.20
2018-07-19T21:57:52.378Z,5.17
2018-07-19T22:00:20.693Z,5.50
2018-07-19T22:02:49.016Z,4.97
2018-07-19T22:05:17.359Z,5.40
2018-07-19T22:07:45.618Z,5.30
2018-07-19T22:10:15.790Z,5.23
2018-07-19T22:12:44.167Z,5.20
2018-07-19T22:15:12.532Z,5.70
2018-07-19T22:17:40.829Z,6.53
2018-07-19T22:20:09.201Z,5.93
2018-07-19T22:22:37.539Z,5.47
2018-07-19T22:25:05.905Z,6.37
2018-07-19T22:27:34.218Z,5.70
2018-07-19T22:30:02.536Z,5.97
2018-07-19T22:32:30.823Z,5.80
2018-07-19T22:34:59.139Z,5.47
2018-07-19T22:37:27.623Z,5.17
2018-07-19T22:39:55.962Z,5.50
2018-07-19T22:42:24.324Z,5.73
2018-07-19T22:44:52.638Z,5.27
2018-07-19T22:47:20.955Z,5.30
2018-07-19T22:49:49.417Z,5.67
2018-07-19T22:52:17.716Z,5.63
2018-07-19T22:54:46.047Z,5.80
2018-07-19T22:57:14.365Z,5.80
2018-07-19T22:59:42.677Z,5.97
2018-07-19T23:02:11.000Z,5.73
2018-07-19T23:04:39.300Z,5.90
2018-07-19T23:07:07.747Z,6.50
2018-07-19T23:09:36.062Z,6.03
2018-07-19T23:12:04.391Z,6.13
2018-07-19T23:14:32.700Z,6.53
2018-07-19T23:17:01.017Z,5.80
2018-07-19T23:19:29.494Z,5.77
2018-07-19T23:21:57.808Z,5.40
2018-07-19T23:24:26.173Z,6.37
2018-07-19T23:26:54.552Z,5.97
2018-07-19T23:29:22.919Z,6.10
2018-07-19T23:31:51.235Z,6.30
2018-07-19T23:34:19.571Z,5.77
2018-07-19T23:36:52.077Z,5.80
2018-07-19T23:39:24.472Z,5.83
2018-07-19T23:41:57.141Z,5.80
2018-07-19T23:44:30.616Z,6.10
2018-07-19T23:47:02.700Z,5.90
2018-07-19T23:49:31.070Z,5.70
2018-07-19T23:51:59.346Z,6.07
2018-07-19T23:54:27.755Z,6.07
2018-07-19T23:56:56.148Z,6.37
2018-07-19T23:59:24.560Z,6.27
